sensor_id;sensor_type;location;lat;lon;timestamp;P1;durP1;ratioP1;P2;durP2;ratioP2
39620;SDS011;25309;48.686;9.170;2023-06-26T00:00:11;7.83;;;6.63;;
39620;SDS011;25309;48.686;9.170;2023-06-26T00:02:39;7.67;;;6.40;;
39620;SDS011;25309;48.686;9.170;2023-06-26T00:05:06;7.43;;;6.60;;
39620;SDS011;25309;48.686;9.170;2023-06-26T00:07:34;7.40;;;6.47;;
39620;SDS011;25309;48.686;9.170;2023-06-26T00:10:02;8.17;;;6.77;;
39620;SDS011;25309;48.686;9.170;2023-06-26T00:12:31;8.40;;;6.70;;
39620;SDS011;25309;48.686;9.170;2023-06-26T00:14:58;8.87;;;7.33;;
39620;SDS011;25309;48.686;9.170;2023-06-26T00:17:25;8.07;;;7.17;;
39620;SDS011;25309;48.686;9.170;2023-06-26T00:19:52;7.40;;;6.60;;
39620;SDS011;25309;48.686;9.170;2023-06-26T00:22:20;8.57;;;7.07;;
39620;SDS011;25309;48.686;9.170;2023-06-26T00:24:47;8.60;;;6.97;;
39620;SDS011;25309;48.686;9.170;2023-06-26T00:27:16;7.60;;;6.70;;
39620;SDS011;25309;48.686;9.170;2023-06-26T00:29:43;8.07;;;6.63;;
39620;SDS011;25309;48.686;9.170;2023-06-26T00:32:10;7.67;;;6.43;;
39620;SDS011;25309;48.686;9.170;2023-06-26T00:34:37;7.80;;;6.60;;
39620;SDS011;25309;48.686;9.170;2023-06-26T00:37:04;7.10;;;6.40;;
39620;SDS011;25309;48.686;9.170;2023-06-26T00:39:31;6.93;;;6.20;;
39620;SDS011;25309;48.686;9.170;2023-06-26T00:41:57;8.27;;;6.33;;
39620;SDS011;25309;48.686;9.170;2023-06-26T00:44:26;8.73;;;6.93;;
39620;SDS011;25309;48.686;9.170;2023-06-26T00:46:53;7.60;;;6.60;;
39620;SDS011;25309;48.686;9.170;2023-06-26T00:49:20;8.03;;;6.53;;
39620;SDS011;25309;48.686;9.170;2023-06-26T00:51:47;7.17;;;6.30;;
39620;SDS011;25309;48.686;9.170;2023-06-26T00:54:15;7.80;;;6.70;;
39620;SDS011;25309;48.686;9.170;2023-06-26T00:56:47;7.27;;;6.13;;
39620;SDS011;25309;48.686;9.170;2023-06-26T00:59:15;7.00;;;6.20;;
39620;SDS011;25309;48.686;9.170;2023-06-26T01:01:43;7.20;;;6.40;;
39620;SDS011;25309;48.686;9.170;2023-06-26T01:04:10;7.73;;;6.47;;
39620;SDS011;25309;48.686;9.170;2023-06-26T01:06:44;9.30;;;6.87;;
39620;SDS011;25309;48.686;9.170;2023-06-26T01:09:16;7.73;;;6.17;;
39620;SDS011;25309;48.686;9.170;2023-06-26T01:11:44;9.00;;;6.70;;
39620;SDS011;25309;48.686;9.170;2023-06-26T01:14:11;7.43;;;6.33;;
39620;SDS011;25309;48.686;9.170;2023-06-26T01:16:39;8.50;;;6.53;;
39620;SDS011;25309;48.686;9.170;2023-06-26T01:19:09;7.53;;;6.30;;
39620;SDS011;25309;48.686;9.170;2023-06-26T01:21:40;7.47;;;6.47;;
39620;SDS011;25309;48.686;9.170;2023-06-26T01:24:12;8.33;;;6.63;;
39620;SDS011;25309;48.686;9.170;2023-06-26T01:26:50;8.00;;;6.73;;
39620;SDS011;25309;48.686;9.170;2023-06-26T01:29:18;7.13;;;6.37;;
39620;SDS011;25309;48.686;9.170;2023-06-26T01:31:46;7.73;;;6.53;;
39620;SDS011;25309;48.686;9.170;2023-06-26T01:34:16;7.67;;;6.63;;
39620;SDS011;25309;48.686;9.170;2023-06-26T01:36:44;6.77;;;6.10;;
39620;SDS011;25309;48.686;9.170;2023-06-26T01:39:14;7.10;;;6.33;;
39620;SDS011;25309;48.686;9.170;2023-06-26T01:41:42;7.93;;;6.67;;
39620;SDS011;25309;48.686;9.170;2023-06-26T01:44:14;7.63;;;6.37;;
39620;SDS011;25309;48.686;9.170;2023-06-26T01:46:49;7.93;;;6.70;;
39620;SDS011;25309;48.686;9.170;2023-06-26T01:49:25;8.00;;;6.33;;
39620;SDS011;25309;48.686;9.170;2023-06-26T01:52:03;7.40;;;6.40;;
39620;SDS011;25309;48.686;9.170;2023-06-26T01:54:37;7.03;;;6.30;;
39620;SDS011;25309;48.686;9.170;2023-06-26T01:57:08;7.20;;;6.23;;
39620;SDS011;25309;48.686;9.170;2023-06-26T01:59:39;7.87;;;6.47;;
39620;SDS011;25309;48.686;9.170;2023-06-26T02:02:08;8.43;;;6.63;;
39620;SDS011;25309;48.686;9.170;2023-06-26T02:04:36;7.13;;;6.33;;
39620;SDS011;25309;48.686;9.170;2023-06-26T02:07:04;8.77;;;6.70;;
39620;SDS011;25309;48.686;9.170;2023-06-26T02:09:32;7.40;;;6.37;;
39620;SDS011;25309;48.686;9.170;2023-06-26T02:11:59;7.43;;;6.30;;
39620;SDS011;25309;48.686;9.170;2023-06-26T02:14:25;8.07;;;6.63;;
39620;SDS011;25309;48.686;9.170;2023-06-26T02:16:54;7.20;;;6.37;;
39620;SDS011;25309;48.686;9.170;2023-06-26T02:19:21;7.80;;;6.13;;
39620;SDS011;25309;48.686;9.170;2023-06-26T02:21:48;7.30;;;6.43;;
39620;SDS011;25309;48.686;9.170;2023-06-26T02:24:15;8.60;;;6.67;;
39620;SDS011;25309;48.686;9.170;2023-06-26T02:26:42;8.13;;;6.37;;
39620;SDS011;25309;48.686;9.170;2023-06-26T02:29:10;7.40;;;6.13;;
39620;SDS011;25309;48.686;9.170;2023-06-26T02:31:39;8.23;;;6.40;;
39620;SDS011;25309;48.686;9.170;2023-06-26T02:34:07;7.30;;;6.33;;
39620;SDS011;25309;48.686;9.170;2023-06-26T02:36:34;7.47;;;6.30;;
39620;SDS011;25309;48.686;9.170;2023-06-26T02:39:04;8.50;;;6.10;;
39620;SDS011;25309;48.686;9.170;2023-06-26T02:41:32;7.73;;;6.77;;
39620;SDS011;25309;48.686;9.170;2023-06-26T02:43:59;7.57;;;6.73;;
39620;SDS011;25309;48.686;9.170;2023-06-26T02:46:27;6.73;;;6.03;;
39620;SDS011;25309;48.686;9.170;2023-06-26T02:48:55;7.63;;;6.30;;
39620;SDS011;25309;48.686;9.170;2023-06-26T02:51:24;7.70;;;6.80;;
39620;SDS011;25309;48.686;9.170;2023-06-26T02:53:52;6.67;;;5.93;;
39620;SDS011;25309;48.686;9.170;2023-06-26T02:56:20;7.43;;;6.13;;
39620;SDS011;25309;48.686;9.170;2023-06-26T02:58:47;6.80;;;6.10;;
39620;SDS011;25309;48.686;9.170;2023-06-26T03:01:14;6.57;;;5.80;;
39620;SDS011;25309;48.686;9.170;2023-06-26T03:03:43;6.70;;;6.00;;
39620;SDS011;25309;48.686;9.170;2023-06-26T03:06:14;7.57;;;6.10;;
39620;SDS011;25309;48.686;9.170;2023-06-26T03:08:43;6.93;;;5.97;;
39620;SDS011;25309;48.686;9.170;2023-06-26T03:11:12;7.40;;;6.20;;
39620;SDS011;25309;48.686;9.170;2023-06-26T03:13:39;8.10;;;6.33;;
39620;SDS011;25309;48.686;9.170;2023-06-26T03:16:06;7.43;;;6.60;;
39620;SDS011;25309;48.686;9.170;2023-06-26T03:18:34;7.80;;;6.60;;
39620;SDS011;25309;48.686;9.170;2023-06-26T03:21:01;6.77;;;5.90;;
39620;SDS011;25309;48.686;9.170;2023-06-26T03:23:28;6.87;;;6.13;;
39620;SDS011;25309;48.686;9.170;2023-06-26T03:25:57;8.33;;;6.23;;
39620;SDS011;25309;48.686;9.170;2023-06-26T03:28:26;6.97;;;5.83;;
39620;SDS011;25309;48.686;9.170;2023-06-26T03:30:53;6.73;;;6.00;;
39620;SDS011;25309;48.686;9.170;2023-06-26T03:33:20;7.73;;;6.30;;
39620;SDS011;25309;48.686;9.170;2023-06-26T03:35:47;7.77;;;6.27;;
39620;SDS011;25309;48.686;9.170;2023-06-26T03:38:14;6.50;;;5.70;;
39620;SDS011;25309;48.686;9.170;2023-06-26T03:40:43;7.17;;;6.10;;
39620;SDS011;25309;48.686;9.170;2023-06-26T03:43:11;7.63;;;5.90;;
39620;SDS011;25309;48.686;9.170;2023-06-26T03:45:54;7.67;;;6.70;;
39620;SDS011;25309;48.686;9.170;2023-06-26T03:48:21;7.73;;;6.63;;
39620;SDS011;25309;48.686;9.170;2023-06-26T03:50:48;7.37;;;6.23;;
39620;SDS011;25309;48.686;9.170;2023-06-26T03:53:15;7.23;;;6.17;;
39620;SDS011;25309;48.686;9.170;2023-06-26T03:55:42;7.50;;;6.40;;
39620;SDS011;25309;48.686;9.170;2023-06-26T03:58:09;6.90;;;6.10;;
39620;SDS011;25309;48.686;9.170;2023-06-26T04:00:38;7.43;;;6.53;;
39620;SDS011;25309;48.686;9.170;2023-06-26T04:03:05;6.90;;;5.87;;
39620;SDS011;25309;48.686;9.170;2023-06-26T04:05:32;7.73;;;5.90;;
39620;SDS011;25309;48.686;9.170;2023-06-26T04:08:00;7.77;;;6.20;;
39620;SDS011;25309;48.686;9.170;2023-06-26T04:10:27;10.50;;;6.50;;
39620;SDS011;25309;48.686;9.170;2023-06-26T04:12:54;7.40;;;6.20;;
39620;SDS011;25309;48.686;9.170;2023-06-26T04:15:22;6.60;;;5.90;;
39620;SDS011;25309;48.686;9.170;2023-06-26T04:17:49;9.47;;;6.73;;
39620;SDS011;25309;48.686;9.170;2023-06-26T04:20:16;7.03;;;6.17;;
39620;SDS011;25309;48.686;9.170;2023-06-26T04:22:43;8.53;;;6.30;;
39620;SDS011;25309;48.686;9.170;2023-06-26T04:25:10;8.47;;;6.23;;
39620;SDS011;25309;48.686;9.170;2023-06-26T04:27:41;6.60;;;5.47;;
39620;SDS011;25309;48.686;9.170;2023-06-26T04:30:08;7.63;;;6.50;;
39620;SDS011;25309;48.686;9.170;2023-06-26T04:32:37;7.20;;;5.87;;
39620;SDS011;25309;48.686;9.170;2023-06-26T04:35:05;6.73;;;5.83;;
39620;SDS011;25309;48.686;9.170;2023-06-26T04:37:32;7.00;;;6.00;;
39620;SDS011;25309;48.686;9.170;2023-06-26T04:39:59;8.07;;;6.47;;
39620;SDS011;25309;48.686;9.170;2023-06-26T04:42:26;7.93;;;6.27;;
39620;SDS011;25309;48.686;9.170;2023-06-26T04:44:53;7.43;;;5.97;;
39620;SDS011;25309;48.686;9.170;2023-06-26T04:47:20;7.87;;;6.20;;
39620;SDS011;25309;48.686;9.170;2023-06-26T04:49:49;7.40;;;6.30;;
39620;SDS011;25309;48.686;9.170;2023-06-26T04:52:16;8.77;;;6.57;;
39620;SDS011;25309;48.686;9.170;2023-06-26T04:54:43;7.00;;;6.23;;
39620;SDS011;25309;48.686;9.170;2023-06-26T04:57:10;6.60;;;5.90;;
39620;SDS011;25309;48.686;9.170;2023-06-26T04:59:38;7.83;;;6.40;;
39620;SDS011;25309;48.686;9.170;2023-06-26T05:02:05;6.80;;;6.10;;
39620;SDS011;25309;48.686;9.170;2023-06-26T05:04:32;6.97;;;6.27;;
39620;SDS011;25309;48.686;9.170;2023-06-26T05:07:01;7.27;;;6.23;;
39620;SDS011;25309;48.686;9.170;2023-06-26T05:09:28;7.00;;;6.20;;
39620;SDS011;25309;48.686;9.170;2023-06-26T05:11:55;8.63;;;6.07;;
39620;SDS011;25309;48.686;9.170;2023-06-26T05:14:22;7.57;;;5.70;;
39620;SDS011;25309;48.686;9.170;2023-06-26T05:16:50;8.43;;;6.70;;
39620;SDS011;25309;48.686;9.170;2023-06-26T05:19:17;7.07;;;6.13;;
39620;SDS011;25309;48.686;9.170;2023-06-26T05:21:45;6.97;;;5.97;;
39620;SDS011;25309;48.686;9.170;2023-06-26T05:24:13;7.23;;;6.10;;
39620;SDS011;25309;48.686;9.170;2023-06-26T05:26:42;7.73;;;6.10;;
39620;SDS011;25309;48.686;9.170;2023-06-26T05:29:10;7.00;;;6.30;;
39620;SDS011;25309;48.686;9.170;2023-06-26T05:31:38;9.80;;;6.53;;
39620;SDS011;25309;48.686;9.170;2023-06-26T05:34:07;8.30;;;5.93;;
39620;SDS011;25309;48.686;9.170;2023-06-26T05:36:36;7.47;;;6.03;;
39620;SDS011;25309;48.686;9.170;2023-06-26T05:39:05;7.00;;;6.07;;
39620;SDS011;25309;48.686;9.170;2023-06-26T05:41:34;6.80;;;6.10;;
39620;SDS011;25309;48.686;9.170;2023-06-26T05:44:01;7.20;;;6.07;;
39620;SDS011;25309;48.686;9.170;2023-06-26T05:46:28;6.90;;;5.90;;
39620;SDS011;25309;48.686;9.170;2023-06-26T05:48:55;6.57;;;5.87;;
39620;SDS011;25309;48.686;9.170;2023-06-26T05:51:22;6.83;;;6.13;;
39620;SDS011;25309;48.686;9.170;2023-06-26T05:53:50;6.63;;;5.93;;
39620;SDS011;25309;48.686;9.170;2023-06-26T05:56:17;6.60;;;5.90;;
39620;SDS011;25309;48.686;9.170;2023-06-26T05:58:46;7.50;;;6.23;;
39620;SDS011;25309;48.686;9.170;2023-06-26T06:01:14;9.23;;;6.20;;
39620;SDS011;25309;48.686;9.170;2023-06-26T06:03:41;7.57;;;6.17;;
39620;SDS011;25309;48.686;9.170;2023-06-26T06:06:08;8.07;;;6.00;;
39620;SDS011;25309;48.686;9.170;2023-06-26T06:08:35;6.73;;;6.03;;
39620;SDS011;25309;48.686;9.170;2023-06-26T06:11:02;6.80;;;6.03;;
39620;SDS011;25309;48.686;9.170;2023-06-26T06:13:29;7.47;;;6.00;;
39620;SDS011;25309;48.686;9.170;2023-06-26T06:15:58;6.70;;;5.90;;
39620;SDS011;25309;48.686;9.170;2023-06-26T06:18:25;7.87;;;5.90;;
39620;SDS011;25309;48.686;9.170;2023-06-26T06:20:51;6.13;;;5.53;;
39620;SDS011;25309;48.686;9.170;2023-06-26T06:23:18;6.73;;;6.03;;
39620;SDS011;25309;48.686;9.170;2023-06-26T06:25:45;7.37;;;6.03;;
39620;SDS011;25309;48.686;9.170;2023-06-26T06:28:12;6.93;;;5.80;;
39620;SDS011;25309;48.686;9.170;2023-06-26T06:30:42;6.67;;;5.67;;
39620;SDS011;25309;48.686;9.170;2023-06-26T06:33:13;6.30;;;5.40;;
39620;SDS011;25309;48.686;9.170;2023-06-26T06:35:40;6.53;;;5.83;;
39620;SDS011;25309;48.686;9.170;2023-06-26T06:38:07;6.37;;;5.73;;
39620;SDS011;25309;48.686;9.170;2023-06-26T06:40:34;7.23;;;5.60;;
39620;SDS011;25309;48.686;9.170;2023-06-26T06:43:01;8.17;;;5.70;;
39620;SDS011;25309;48.686;9.170;2023-06-26T06:45:28;6.20;;;5.60;;
39620;SDS011;25309;48.686;9.170;2023-06-26T06:47:55;6.27;;;5.50;;
39620;SDS011;25309;48.686;9.170;2023-06-26T06:50:24;6.60;;;5.53;;
39620;SDS011;25309;48.686;9.170;2023-06-26T06:52:51;7.50;;;5.50;;
39620;SDS011;25309;48.686;9.170;2023-06-26T06:55:18;5.97;;;5.10;;
39620;SDS011;25309;48.686;9.170;2023-06-26T06:57:45;6.63;;;5.40;;
39620;SDS011;25309;48.686;9.170;2023-06-26T07:00:12;6.10;;;5.37;;
39620;SDS011;25309;48.686;9.170;2023-06-26T07:02:41;6.03;;;5.10;;
39620;SDS011;25309;48.686;9.170;2023-06-26T07:05:10;5.63;;;5.03;;
39620;SDS011;25309;48.686;9.170;2023-06-26T07:07:39;7.30;;;5.27;;
39620;SDS011;25309;48.686;9.170;2023-06-26T07:10:07;5.70;;;4.90;;
39620;SDS011;25309;48.686;9.170;2023-06-26T07:12:35;5.93;;;5.00;;
39620;SDS011;25309;48.686;9.170;2023-06-26T07:15:03;7.23;;;5.43;;
39620;SDS011;25309;48.686;9.170;2023-06-26T07:17:31;6.27;;;5.27;;
39620;SDS011;25309;48.686;9.170;2023-06-26T07:19:59;6.20;;;5.23;;
39620;SDS011;25309;48.686;9.170;2023-06-26T07:22:27;9.97;;;5.00;;
39620;SDS011;25309;48.686;9.170;2023-06-26T07:24:55;5.87;;;5.20;;
39620;SDS011;25309;48.686;9.170;2023-06-26T07:27:23;5.97;;;5.20;;
39620;SDS011;25309;48.686;9.170;2023-06-26T07:29:50;6.43;;;5.03;;
39620;SDS011;25309;48.686;9.170;2023-06-26T07:32:17;6.57;;;4.73;;
39620;SDS011;25309;48.686;9.170;2023-06-26T07:34:44;7.57;;;5.47;;
39620;SDS011;25309;48.686;9.170;2023-06-26T07:37:11;6.70;;;5.40;;
39620;SDS011;25309;48.686;9.170;2023-06-26T07:39:38;7.00;;;5.53;;
39620;SDS011;25309;48.686;9.170;2023-06-26T07:42:06;5.30;;;4.80;;
39620;SDS011;25309;48.686;9.170;2023-06-26T07:44:33;6.47;;;4.63;;
39620;SDS011;25309;48.686;9.170;2023-06-26T07:47:00;5.77;;;5.07;;
39620;SDS011;25309;48.686;9.170;2023-06-26T07:49:27;5.00;;;4.50;;
39620;SDS011;25309;48.686;9.170;2023-06-26T07:51:54;5.03;;;4.50;;
39620;SDS011;25309;48.686;9.170;2023-06-26T07:54:21;5.17;;;4.50;;
39620;SDS011;25309;48.686;9.170;2023-06-26T07:56:54;5.70;;;4.80;;
39620;SDS011;25309;48.686;9.170;2023-06-26T07:59:24;5.40;;;4.80;;
39620;SDS011;25309;48.686;9.170;2023-06-26T08:01:53;6.73;;;4.97;;
39620;SDS011;25309;48.686;9.170;2023-06-26T08:04:21;5.80;;;5.20;;
39620;SDS011;25309;48.686;9.170;2023-06-26T08:06:50;5.60;;;4.70;;
39620;SDS011;25309;48.686;9.170;2023-06-26T08:09:19;5.10;;;4.60;;
39620;SDS011;25309;48.686;9.170;2023-06-26T08:11:46;5.80;;;4.87;;
39620;SDS011;25309;48.686;9.170;2023-06-26T08:14:14;5.30;;;4.80;;
39620;SDS011;25309;48.686;9.170;2023-06-26T08:16:43;5.30;;;4.47;;
39620;SDS011;25309;48.686;9.170;2023-06-26T08:19:10;6.07;;;4.97;;
39620;SDS011;25309;48.686;9.170;2023-06-26T08:21:38;5.90;;;4.57;;
39620;SDS011;25309;48.686;9.170;2023-06-26T08:24:05;6.03;;;5.23;;
39620;SDS011;25309;48.686;9.170;2023-06-26T08:26:33;5.27;;;4.70;;
39620;SDS011;25309;48.686;9.170;2023-06-26T08:29:00;5.10;;;4.50;;
39620;SDS011;25309;48.686;9.170;2023-06-26T08:31:37;7.03;;;5.03;;
39620;SDS011;25309;48.686;9.170;2023-06-26T08:34:06;5.33;;;4.73;;
39620;SDS011;25309;48.686;9.170;2023-06-26T08:36:34;5.43;;;4.60;;
39620;SDS011;25309;48.686;9.170;2023-06-26T08:39:01;5.10;;;4.60;;
39620;SDS011;25309;48.686;9.170;2023-06-26T08:41:29;5.43;;;4.80;;
39620;SDS011;25309;48.686;9.170;2023-06-26T08:43:56;6.60;;;4.43;;
39620;SDS011;25309;48.686;9.170;2023-06-26T08:46:23;5.87;;;4.90;;
39620;SDS011;25309;48.686;9.170;2023-06-26T08:48:52;5.53;;;4.57;;
39620;SDS011;25309;48.686;9.170;2023-06-26T08:51:24;6.13;;;4.67;;
39620;SDS011;25309;48.686;9.170;2023-06-26T08:53:56;5.50;;;4.50;;
39620;SDS011;25309;48.686;9.170;2023-06-26T08:56:25;6.27;;;4.60;;
39620;SDS011;25309;48.686;9.170;2023-06-26T08:58:55;6.00;;;5.20;;
39620;SDS011;25309;48.686;9.170;2023-06-26T09:01:22;5.33;;;4.80;;
39620;SDS011;25309;48.686;9.170;2023-06-26T09:03:50;5.30;;;4.80;;
39620;SDS011;25309;48.686;9.170;2023-06-26T09:06:17;5.83;;;4.50;;
39620;SDS011;25309;48.686;9.170;2023-06-26T09:08:46;5.60;;;4.57;;
39620;SDS011;25309;48.686;9.170;2023-06-26T09:11:13;5.03;;;4.53;;
39620;SDS011;25309;48.686;9.170;2023-06-26T09:13:40;5.17;;;4.33;;
39620;SDS011;25309;48.686;9.170;2023-06-26T09:16:08;4.77;;;4.37;;
39620;SDS011;25309;48.686;9.170;2023-06-26T09:18:36;5.83;;;4.77;;
39620;SDS011;25309;48.686;9.170;2023-06-26T09:21:06;8.20;;;4.90;;
39620;SDS011;25309;48.686;9.170;2023-06-26T09:23:34;7.83;;;4.73;;
39620;SDS011;25309;48.686;9.170;2023-06-26T09:26:03;5.40;;;4.90;;
39620;SDS011;25309;48.686;9.170;2023-06-26T09:28:31;5.82;;;4.50;;
39620;SDS011;25309;48.686;9.170;2023-06-26T09:31:03;5.50;;;4.70;;
39620;SDS011;25309;48.686;9.170;2023-06-26T09:33:34;4.90;;;4.40;;
39620;SDS011;25309;48.686;9.170;2023-06-26T09:36:05;6.63;;;4.93;;
39620;SDS011;25309;48.686;9.170;2023-06-26T09:38:33;5.13;;;4.63;;
39620;SDS011;25309;48.686;9.170;2023-06-26T09:41:01;6.18;;;4.60;;
39620;SDS011;25309;48.686;9.170;2023-06-26T09:43:29;5.50;;;4.57;;
39620;SDS011;25309;48.686;9.170;2023-06-26T09:45:58;6.13;;;4.68;;
39620;SDS011;25309;48.686;9.170;2023-06-26T09:48:27;5.20;;;4.70;;
39620;SDS011;25309;48.686;9.170;2023-06-26T09:50:55;5.00;;;4.43;;
39620;SDS011;25309;48.686;9.170;2023-06-26T09:53:39;5.67;;;4.23;;
39620;SDS011;25309;48.686;9.170;2023-06-26T09:56:10;5.47;;;4.90;;
39620;SDS011;25309;48.686;9.170;2023-06-26T09:58:46;6.32;;;4.80;;
39620;SDS011;25309;48.686;9.170;2023-06-26T10:01:14;7.22;;;5.00;;
39620;SDS011;25309;48.686;9.170;2023-06-26T10:03:41;5.63;;;5.10;;
39620;SDS011;25309;48.686;9.170;2023-06-26T10:06:08;5.53;;;5.03;;
39620;SDS011;25309;48.686;9.170;2023-06-26T10:08:37;5.53;;;4.78;;
39620;SDS011;25309;48.686;9.170;2023-06-26T10:11:06;5.55;;;5.03;;
39620;SDS011;25309;48.686;9.170;2023-06-26T10:13:35;6.10;;;5.00;;
39620;SDS011;25309;48.686;9.170;2023-06-26T10:16:07;5.23;;;4.73;;
39620;SDS011;25309;48.686;9.170;2023-06-26T10:18:36;5.85;;;4.97;;
39620;SDS011;25309;48.686;9.170;2023-06-26T10:21:06;5.32;;;4.75;;
39620;SDS011;25309;48.686;9.170;2023-06-26T10:23:34;6.13;;;5.00;;
39620;SDS011;25309;48.686;9.170;2023-06-26T10:26:05;5.15;;;4.65;;
39620;SDS011;25309;48.686;9.170;2023-06-26T10:28:34;5.45;;;4.78;;
39620;SDS011;25309;48.686;9.170;2023-06-26T10:31:03;7.03;;;4.95;;
39620;SDS011;25309;48.686;9.170;2023-06-26T10:33:34;5.20;;;4.70;;
39620;SDS011;25309;48.686;9.170;2023-06-26T10:38:48;5.60;;;5.00;;
39620;SDS011;25309;48.686;9.170;2023-06-26T10:41:19;7.38;;;5.05;;
39620;SDS011;25309;48.686;9.170;2023-06-26T10:43:48;5.35;;;4.85;;
39620;SDS011;25309;48.686;9.170;2023-06-26T10:46:17;5.53;;;4.90;;
39620;SDS011;25309;48.686;9.170;2023-06-26T10:48:57;7.32;;;5.10;;
39620;SDS011;25309;48.686;9.170;2023-06-26T10:51:25;6.38;;;5.45;;
39620;SDS011;25309;48.686;9.170;2023-06-26T10:53:53;8.45;;;5.68;;
39620;SDS011;25309;48.686;9.170;2023-06-26T10:56:20;6.43;;;5.45;;
39620;SDS011;25309;48.686;9.170;2023-06-26T10:58:48;6.78;;;6.03;;
39620;SDS011;25309;48.686;9.170;2023-06-26T11:01:16;5.82;;;5.22;;
39620;SDS011;25309;48.686;9.170;2023-06-26T11:03:46;6.70;;;6.00;;
39620;SDS011;25309;48.686;9.170;2023-06-26T11:06:21;8.80;;;5.57;;
39620;SDS011;25309;48.686;9.170;2023-06-26T11:08:48;8.07;;;5.80;;
39620;SDS011;25309;48.686;9.170;2023-06-26T11:11:16;6.10;;;5.50;;
39620;SDS011;25309;48.686;9.170;2023-06-26T11:13:45;7.43;;;5.65;;
39620;SDS011;25309;48.686;9.170;2023-06-26T11:16:13;7.18;;;5.85;;
39620;SDS011;25309;48.686;9.170;2023-06-26T11:18:41;7.20;;;5.43;;
39620;SDS011;25309;48.686;9.170;2023-06-26T11:21:09;6.60;;;5.70;;
39620;SDS011;25309;48.686;9.170;2023-06-26T11:23:41;7.20;;;5.50;;
39620;SDS011;25309;48.686;9.170;2023-06-26T11:26:15;7.78;;;6.00;;
39620;SDS011;25309;48.686;9.170;2023-06-26T11:28:49;6.20;;;5.43;;
39620;SDS011;25309;48.686;9.170;2023-06-26T11:31:24;7.03;;;6.00;;
39620;SDS011;25309;48.686;9.170;2023-06-26T11:33:52;7.38;;;6.22;;
39620;SDS011;25309;48.686;9.170;2023-06-26T11:36:19;6.82;;;5.97;;
39620;SDS011;25309;48.686;9.170;2023-06-26T11:38:53;6.90;;;5.55;;
39620;SDS011;25309;48.686;9.170;2023-06-26T11:41:21;6.50;;;5.63;;
39620;SDS011;25309;48.686;9.170;2023-06-26T11:43:48;7.18;;;6.20;;
39620;SDS011;25309;48.686;9.170;2023-06-26T11:46:16;6.13;;;5.50;;
39620;SDS011;25309;48.686;9.170;2023-06-26T11:48:44;6.13;;;5.53;;
39620;SDS011;25309;48.686;9.170;2023-06-26T11:51:12;7.15;;;6.10;;
39620;SDS011;25309;48.686;9.170;2023-06-26T11:53:40;7.65;;;6.25;;
39620;SDS011;25309;48.686;9.170;2023-06-26T11:56:10;6.63;;;5.82;;
39620;SDS011;25309;48.686;9.170;2023-06-26T12:01:21;6.28;;;5.68;;
39620;SDS011;25309;48.686;9.170;2023-06-26T12:03:49;8.00;;;5.90;;
39620;SDS011;25309;48.686;9.170;2023-06-26T12:06:16;6.20;;;5.60;;
39620;SDS011;25309;48.686;9.170;2023-06-26T12:08:44;7.53;;;6.13;;
39620;SDS011;25309;48.686;9.170;2023-06-26T12:11:12;6.43;;;5.70;;
39620;SDS011;25309;48.686;9.170;2023-06-26T12:13:40;8.20;;;5.97;;
39620;SDS011;25309;48.686;9.170;2023-06-26T12:16:07;6.65;;;5.85;;
39620;SDS011;25309;48.686;9.170;2023-06-26T12:18:34;8.55;;;6.15;;
39620;SDS011;25309;48.686;9.170;2023-06-26T12:21:02;7.20;;;6.18;;
39620;SDS011;25309;48.686;9.170;2023-06-26T12:23:32;6.30;;;5.70;;
39620;SDS011;25309;48.686;9.170;2023-06-26T12:28:44;8.68;;;5.68;;
39620;SDS011;25309;48.686;9.170;2023-06-26T12:31:12;6.38;;;5.65;;
39620;SDS011;25309;48.686;9.170;2023-06-26T12:33:40;6.63;;;5.72;;
39620;SDS011;25309;48.686;9.170;2023-06-26T12:36:10;7.28;;;5.95;;
39620;SDS011;25309;48.686;9.170;2023-06-26T12:38:38;6.55;;;5.40;;
39620;SDS011;25309;48.686;9.170;2023-06-26T12:41:05;7.70;;;5.68;;
39620;SDS011;25309;48.686;9.170;2023-06-26T12:43:39;6.25;;;5.60;;
39620;SDS011;25309;48.686;9.170;2023-06-26T12:46:06;6.35;;;5.70;;
39620;SDS011;25309;48.686;9.170;2023-06-26T12:48:37;6.63;;;5.95;;
39620;SDS011;25309;48.686;9.170;2023-06-26T12:51:09;7.45;;;5.57;;
39620;SDS011;25309;48.686;9.170;2023-06-26T12:53:37;6.10;;;5.50;;
39620;SDS011;25309;48.686;9.170;2023-06-26T12:56:06;6.97;;;5.55;;
39620;SDS011;25309;48.686;9.170;2023-06-26T12:58:33;8.82;;;5.95;;
39620;SDS011;25309;48.686;9.170;2023-06-26T13:01:02;6.47;;;5.82;;
39620;SDS011;25309;48.686;9.170;2023-06-26T13:03:30;6.30;;;5.70;;
39620;SDS011;25309;48.686;9.170;2023-06-26T13:06:00;7.85;;;5.88;;
39620;SDS011;25309;48.686;9.170;2023-06-26T13:08:26;7.32;;;5.38;;
39620;SDS011;25309;48.686;9.170;2023-06-26T13:10:55;7.38;;;5.35;;
39620;SDS011;25309;48.686;9.170;2023-06-26T13:13:22;7.82;;;5.50;;
39620;SDS011;25309;48.686;9.170;2023-06-26T13:15:50;7.47;;;5.47;;
39620;SDS011;25309;48.686;9.170;2023-06-26T13:18:18;6.80;;;5.93;;
39620;SDS011;25309;48.686;9.170;2023-06-26T13:20:45;6.93;;;5.53;;
39620;SDS011;25309;48.686;9.170;2023-06-26T13:23:13;6.25;;;5.55;;
39620;SDS011;25309;48.686;9.170;2023-06-26T13:25:39;7.95;;;6.03;;
39620;SDS011;25309;48.686;9.170;2023-06-26T13:28:06;7.03;;;5.95;;
39620;SDS011;25309;48.686;9.170;2023-06-26T13:30:34;7.47;;;5.72;;
39620;SDS011;25309;48.686;9.170;2023-06-26T13:33:01;8.52;;;5.93;;
39620;SDS011;25309;48.686;9.170;2023-06-26T13:35:29;6.00;;;5.35;;
39620;SDS011;25309;48.686;9.170;2023-06-26T13:37:56;6.43;;;5.78;;
39620;SDS011;25309;48.686;9.170;2023-06-26T13:40:23;10.85;;;5.20;;
39620;SDS011;25309;48.686;9.170;2023-06-26T13:42:50;7.38;;;5.57;;
39620;SDS011;25309;48.686;9.170;2023-06-26T13:45:17;6.10;;;5.50;;
39620;SDS011;25309;48.686;9.170;2023-06-26T13:47:51;6.20;;;4.88;;
39620;SDS011;25309;48.686;9.170;2023-06-26T13:50:18;6.57;;;4.97;;
39620;SDS011;25309;48.686;9.170;2023-06-26T13:52:47;6.57;;;4.97;;
39620;SDS011;25309;48.686;9.170;2023-06-26T13:55:14;9.02;;;5.40;;
39620;SDS011;25309;48.686;9.170;2023-06-26T13:57:41;7.20;;;4.90;;
39620;SDS011;25309;48.686;9.170;2023-06-26T14:00:08;7.40;;;5.22;;
39620;SDS011;25309;48.686;9.170;2023-06-26T14:02:38;6.15;;;5.20;;
39620;SDS011;25309;48.686;9.170;2023-06-26T14:05:06;8.95;;;5.20;;
39620;SDS011;25309;48.686;9.170;2023-06-26T14:07:34;5.43;;;4.93;;
39620;SDS011;25309;48.686;9.170;2023-06-26T14:10:02;9.00;;;4.95;;
39620;SDS011;25309;48.686;9.170;2023-06-26T14:12:30;10.57;;;5.07;;
39620;SDS011;25309;48.686;9.170;2023-06-26T14:14:57;5.60;;;5.00;;
39620;SDS011;25309;48.686;9.170;2023-06-26T14:17:24;5.47;;;4.68;;
39620;SDS011;25309;48.686;9.170;2023-06-26T14:19:52;5.55;;;4.93;;
39620;SDS011;25309;48.686;9.170;2023-06-26T14:22:19;6.18;;;4.60;;
39620;SDS011;25309;48.686;9.170;2023-06-26T14:24:47;6.05;;;4.68;;
39620;SDS011;25309;48.686;9.170;2023-06-26T14:27:16;9.00;;;4.93;;
39620;SDS011;25309;48.686;9.170;2023-06-26T14:29:43;6.20;;;4.80;;
39620;SDS011;25309;48.686;9.170;2023-06-26T14:32:10;5.13;;;4.60;;
39620;SDS011;25309;48.686;9.170;2023-06-26T14:34:37;7.13;;;4.43;;
39620;SDS011;25309;48.686;9.170;2023-06-26T14:37:06;5.95;;;4.40;;
39620;SDS011;25309;48.686;9.170;2023-06-26T14:39:33;4.70;;;4.20;;
39620;SDS011;25309;48.686;9.170;2023-06-26T14:42:00;5.43;;;4.10;;
39620;SDS011;25309;48.686;9.170;2023-06-26T14:44:29;6.57;;;4.65;;
39620;SDS011;25309;48.686;9.170;2023-06-26T14:46:57;6.50;;;4.45;;
39620;SDS011;25309;48.686;9.170;2023-06-26T14:49:24;6.22;;;3.75;;
39620;SDS011;25309;48.686;9.170;2023-06-26T14:51:50;5.00;;;3.60;;
39620;SDS011;25309;48.686;9.170;2023-06-26T14:54:17;4.65;;;3.53;;
39620;SDS011;25309;48.686;9.170;2023-06-26T14:56:44;4.30;;;3.90;;
39620;SDS011;25309;48.686;9.170;2023-06-26T14:59:12;5.00;;;3.70;;
39620;SDS011;25309;48.686;9.170;2023-06-26T15:01:40;4.93;;;3.42;;